createdAt,value
2019-03-18T00:00:05.995Z,0.88
2019-03-18T00:03:05.318Z,1.02
2019-03-18T00:06:08.489Z,1.10
2019-03-18T00:09:18.698Z,0.90
2019-03-18T00:12:21.737Z,1.12
2019-03-18T00:15:25.543Z,1.15
2019-03-18T00:18:28.587Z,1.12
2019-03-18T00:21:31.624Z,1.20
2019-03-18T00:24:49.512Z,1.30
2019-03-18T00:27:53.576Z,1.62
2019-03-18T00:30:56.620Z,1.00
2019-03-18T00:33:59.424Z,1.75
2019-03-18T00:37:02.439Z,1.00
2019-03-18T00:40:05.482Z,1.12
2019-03-18T00:43:08.263Z,1.10
2019-03-18T00:46:11.315Z,0.95
2019-03-18T00:49:14.347Z,1.07
2019-03-18T00:52:17.126Z,0.98
2019-03-18T00:55:20.423Z,1.07
2019-03-18T00:58:19.787Z,1.45
2019-03-18T01:01:22.664Z,1.12
2019-03-18T01:04:25.448Z,1.10
2019-03-18T01:07:28.232Z,1.30
2019-03-18T01:10:31.531Z,1.37
2019-03-18T01:13:34.312Z,1.12
2019-03-18T01:16:36.846Z,1.32
2019-03-18T01:19:39.886Z,1.25
2019-03-18T01:22:42.946Z,1.20
2019-03-18T01:25:45.702Z,1.07
2019-03-18T01:28:49.517Z,1.60
2019-03-18T01:31:52.295Z,1.00
2019-03-18T01:34:55.417Z,1.15
2019-03-18T01:37:59.398Z,1.10
2019-03-18T01:41:02.440Z,0.90
2019-03-18T01:44:05.238Z,1.02
2019-03-18T01:47:08.261Z,1.20
2019-03-18T01:50:11.304Z,1.22
2019-03-18T01:53:14.091Z,1.15
2019-03-18T01:56:18.156Z,1.20
2019-03-18T01:59:20.937Z,1.10
2019-03-18T02:02:23.975Z,1.40
2019-03-18T02:05:34.439Z,0.90
2019-03-18T02:08:37.223Z,1.20
2019-03-18T02:11:40.008Z,1.00
2019-03-18T02:14:43.047Z,1.30
2019-03-18T02:17:49.160Z,1.47
2019-03-18T02:20:51.945Z,1.00
2019-03-18T02:24:02.666Z,1.02
2019-03-18T02:27:05.447Z,1.22
2019-03-18T02:30:08.489Z,1.32
2019-03-18T02:33:11.291Z,1.52
2019-03-18T02:36:14.057Z,1.05
2019-03-18T02:39:24.524Z,1.15
2019-03-18T02:42:27.306Z,1.20
2019-03-18T02:45:30.345Z,1.00
2019-03-18T02:48:33.391Z,1.05
2019-03-18T02:51:36.183Z,1.00
2019-03-18T02:54:39.473Z,1.20
2019-03-18T02:57:42.503Z,0.70
2019-03-18T03:00:45.291Z,0.90
2019-03-18T03:03:47.819Z,1.07
2019-03-18T03:06:46.998Z,1.27
2019-03-18T03:09:49.808Z,0.90
2019-03-18T03:12:52.845Z,1.10
2019-03-18T03:15:55.625Z,1.10
2019-03-18T03:18:58.156Z,0.90
2019-03-18T03:22:01.190Z,1.35
2019-03-18T03:25:04.231Z,0.90
2019-03-18T03:28:07.270Z,1.10
2019-03-18T03:31:10.060Z,1.40
2019-03-18T03:34:14.191Z,1.37
2019-03-18T03:37:16.137Z,1.00
2019-03-18T03:40:19.176Z,1.00
2019-03-18T03:43:21.977Z,1.27
2019-03-18T03:46:24.743Z,1.10
2019-03-18T03:49:27.783Z,1.02
2019-03-18T03:52:30.569Z,0.93
2019-03-18T03:55:33.863Z,1.27
2019-03-18T03:58:36.904Z,1.10
2019-03-18T04:01:39.685Z,1.00
2019-03-18T04:04:43.495Z,1.22
2019-03-18T04:07:46.553Z,1.25
2019-03-18T04:10:49.320Z,1.10
2019-03-18T04:13:52.103Z,1.00
2019-03-18T04:17:01.641Z,1.40
2019-03-18T04:20:05.107Z,1.10
2019-03-18T04:23:08.135Z,1.27
2019-03-18T04:26:12.219Z,1.27
2019-03-18T04:29:14.986Z,1.72
2019-03-18T04:32:20.334Z,1.47
2019-03-18T04:35:23.367Z,0.90
2019-03-18T04:38:27.440Z,1.30
2019-03-18T04:41:30.214Z,0.98
2019-03-18T04:44:33.256Z,1.10
2019-03-18T04:47:36.299Z,1.52
2019-03-18T04:50:44.069Z,1.40
2019-03-18T04:53:44.422Z,1.27
2019-03-18T04:56:47.206Z,1.12
2019-03-18T04:59:50.246Z,1.55
2019-03-18T05:02:53.292Z,1.10
2019-03-18T05:05:56.327Z,1.30
2019-03-18T05:08:59.110Z,1.17
2019-03-18T05:12:02.162Z,1.92
2019-03-18T05:15:04.938Z,1.55
2019-03-18T05:18:07.719Z,1.70
2019-03-18T05:21:11.017Z,1.70
2019-03-18T05:24:13.801Z,1.25
2019-03-18T05:27:16.584Z,1.47
2019-03-18T05:30:19.622Z,1.10
2019-03-18T05:33:22.663Z,1.40
2019-03-18T05:36:25.452Z,1.75
2019-03-18T05:39:27.975Z,1.20
2019-03-18T05:42:31.019Z,1.62
2019-03-18T05:45:34.056Z,1.25
2019-03-18T05:48:37.101Z,1.60
2019-03-18T05:51:40.402Z,1.42
2019-03-18T05:54:43.431Z,1.32
2019-03-18T05:57:47.240Z,1.35
2019-03-18T06:00:50.284Z,1.20
2019-03-18T06:03:53.320Z,1.40
2019-03-18T06:06:56.104Z,1.30
2019-03-18T06:09:58.888Z,1.25
2019-03-18T06:13:02.700Z,1.67
2019-03-18T06:16:05.479Z,1.60
2019-03-18T06:19:08.262Z,1.77
2019-03-18T06:22:11.047Z,1.40
2019-03-18T06:25:13.848Z,1.20
2019-03-18T06:28:16.880Z,1.20
2019-03-18T06:31:19.947Z,1.37
2019-03-18T06:34:22.698Z,1.22
2019-03-18T06:37:25.481Z,1.00
2019-03-18T06:40:28.521Z,1.17
2019-03-18T06:43:31.558Z,1.57
2019-03-18T06:46:41.772Z,1.60
2019-03-18T06:49:45.325Z,1.75
2019-03-18T06:52:48.103Z,1.70
2019-03-18T06:55:51.144Z,1.47
2019-03-18T06:58:54.441Z,1.15
2019-03-18T07:01:57.737Z,2.12
2019-03-18T07:05:00.539Z,1.55
2019-03-18T07:08:03.563Z,1.72
2019-03-18T07:11:06.601Z,1.70
2019-03-18T07:14:09.646Z,1.80
2019-03-18T07:17:12.681Z,1.30
2019-03-18T07:20:15.723Z,1.27
2019-03-18T07:23:18.763Z,1.32
2019-03-18T07:26:18.077Z,1.65
2019-03-18T07:29:21.000Z,1.45
2019-03-18T07:32:24.046Z,1.52
2019-03-18T07:35:26.824Z,2.00
2019-03-18T07:38:29.862Z,1.60
2019-03-18T07:41:33.159Z,1.65
2019-03-18T07:44:35.942Z,1.90
2019-03-18T07:47:39.239Z,1.82
2019-03-18T07:50:42.284Z,1.67
2019-03-18T07:53:45.064Z,1.40
2019-03-18T07:56:48.363Z,1.90
2019-03-18T07:59:51.145Z,1.82
2019-03-18T08:02:54.183Z,1.72
2019-03-18T08:05:56.965Z,1.40
2019-03-18T08:08:56.243Z,1.60
2019-03-18T08:11:58.951Z,1.87
2019-03-18T08:15:01.994Z,1.50
2019-03-18T08:18:05.035Z,2.05
2019-03-18T08:21:08.072Z,1.50
2019-03-18T08:24:10.916Z,1.32
2019-03-18T08:27:13.897Z,1.55
2019-03-18T08:30:16.683Z,1.37
2019-03-18T08:33:19.720Z,1.37
2019-03-18T08:36:23.785Z,1.70
2019-03-18T08:39:26.567Z,2.02
2019-03-18T08:42:29.349Z,1.98
2019-03-18T08:45:33.427Z,1.90
2019-03-18T08:48:32.874Z,1.55
2019-03-18T08:51:36.166Z,1.30
2019-03-18T08:54:39.466Z,0.98
2019-03-18T08:57:43.018Z,1.85
2019-03-18T09:00:46.057Z,1.57
2019-03-18T09:03:49.352Z,2.25
2019-03-18T09:06:52.134Z,1.20
2019-03-18T09:09:55.178Z,1.90
2019-03-18T09:12:57.962Z,1.85
2019-03-18T09:16:01.261Z,1.70
2019-03-18T09:19:09.089Z,1.37
2019-03-18T09:22:07.081Z,1.92
2019-03-18T09:25:10.376Z,2.00
2019-03-18T09:28:13.418Z,1.85
2019-03-18T09:31:16.538Z,1.65
2019-03-18T09:34:19.498Z,1.87
2019-03-18T09:37:23.305Z,2.10
2019-03-18T09:40:29.082Z,2.30
2019-03-18T09:43:30.151Z,1.95
2019-03-18T09:46:40.614Z,1.40
2019-03-18T09:49:43.656Z,1.72
2019-03-18T09:52:46.445Z,2.00
2019-03-18T09:55:49.478Z,1.92
2019-03-18T09:58:52.526Z,2.20
2019-03-18T10:01:55.306Z,1.90
2019-03-18T10:04:58.091Z,1.77
2019-03-18T10:08:00.873Z,1.77
2019-03-18T10:11:03.661Z,1.55
2019-03-18T10:14:08.750Z,1.85
2019-03-18T10:17:10.081Z,1.62
2019-03-18T10:20:11.759Z,1.35
2019-03-18T10:23:15.048Z,2.52
2019-03-18T10:26:18.605Z,2.45
2019-03-18T10:29:21.642Z,2.08
2019-03-18T10:32:26.217Z,1.72
2019-03-18T10:35:29.255Z,1.62
2019-03-18T10:38:32.813Z,1.92
2019-03-18T10:41:35.847Z,2.27
2019-03-18T10:44:38.633Z,1.82
2019-03-18T10:47:41.416Z,2.10
2019-03-18T10:50:44.198Z,1.87
2019-03-18T10:53:47.494Z,1.72
2019-03-18T10:56:50.793Z,2.22
2019-03-18T10:59:53.832Z,2.55
2019-03-18T11:02:56.617Z,1.75
2019-03-18T11:05:59.656Z,1.80
2019-03-18T11:09:02.696Z,1.35
2019-03-18T11:12:05.479Z,1.70
2019-03-18T11:15:08.518Z,1.67
2019-03-18T11:18:11.312Z,1.85
2019-03-18T11:21:08.810Z,1.75
2019-03-18T11:24:12.022Z,1.50
2019-03-18T11:27:14.791Z,1.55
2019-03-18T11:30:17.830Z,2.02
2019-03-18T11:33:21.393Z,1.82
2019-03-18T11:36:25.705Z,1.10
2019-03-18T11:39:28.743Z,1.50
2019-03-18T11:42:31.786Z,1.35
2019-03-18T11:45:34.573Z,1.40
2019-03-18T11:48:37.354Z,0.93
2019-03-18T11:51:40.669Z,2.05
2019-03-18T11:54:43.690Z,1.20
2019-03-18T11:57:46.989Z,1.40
2019-03-18T12:00:49.775Z,1.20
2019-03-18T12:03:52.296Z,1.25
2019-03-18T12:06:55.593Z,1.52
2019-03-18T12:09:58.375Z,1.37
2019-03-18T12:13:01.431Z,0.90
2019-03-18T12:16:04.456Z,0.93
2019-03-18T12:19:07.763Z,1.00
2019-03-18T12:22:10.792Z,2.00
2019-03-18T12:25:13.831Z,1.27
2019-03-18T12:28:16.615Z,0.93
2019-03-18T12:31:19.665Z,1.50
2019-03-18T12:34:22.184Z,1.42
2019-03-18T12:37:25.223Z,1.02
2019-03-18T12:40:28.264Z,1.05
2019-03-18T12:43:38.470Z,1.17
2019-03-18T12:46:41.767Z,1.27
2019-03-18T12:49:45.066Z,1.87
2019-03-18T12:52:48.112Z,1.20
2019-03-18T12:55:52.992Z,1.27
2019-03-18T12:58:54.442Z,1.85
2019-03-18T13:01:53.870Z,1.20
2019-03-18T13:04:57.191Z,1.32
2019-03-18T13:07:59.974Z,1.30
2019-03-18T13:10:59.141Z,1.40
2019-03-18T13:14:01.959Z,1.45
2019-03-18T13:17:04.998Z,1.40
2019-03-18T13:20:07.786Z,1.35
2019-03-18T13:23:10.573Z,1.10
2019-03-18T13:26:13.351Z,1.40
2019-03-18T13:29:16.392Z,1.70
2019-03-18T13:32:19.690Z,1.67
2019-03-18T13:35:22.473Z,1.90
2019-03-18T13:38:25.514Z,2.15
2019-03-18T13:41:28.551Z,1.37
2019-03-18T13:44:31.593Z,1.60
2019-03-18T13:47:34.394Z,1.30
2019-03-18T13:50:37.171Z,1.17
2019-03-18T13:53:41.224Z,1.72
2019-03-18T13:56:44.007Z,1.50
2019-03-18T13:59:47.046Z,1.40
2019-03-18T14:02:50.938Z,1.62
2019-03-18T14:05:53.896Z,2.10
2019-03-18T14:08:57.193Z,1.98
2019-03-18T14:12:00.234Z,1.87
2019-03-18T14:15:03.017Z,1.75
2019-03-18T14:18:05.805Z,2.52
2019-03-18T14:21:08.841Z,1.98
2019-03-18T14:24:06.043Z,1.47
2019-03-18T14:27:08.776Z,1.67
2019-03-18T14:30:11.816Z,1.60
2019-03-18T14:33:14.856Z,1.60
2019-03-18T14:36:17.895Z,1.60
2019-03-18T14:39:20.679Z,1.57
2019-03-18T14:42:24.748Z,1.57
2019-03-18T14:45:28.807Z,1.60
2019-03-18T14:48:31.857Z,1.30
2019-03-18T14:51:46.159Z,1.27
2019-03-18T14:54:45.099Z,1.20
2019-03-18T14:57:48.142Z,0.93
2019-03-18T15:00:51.176Z,1.00
2019-03-18T15:03:53.960Z,0.70
2019-03-18T15:06:57.006Z,0.70
2019-03-18T15:10:00.040Z,0.50
2019-03-18T15:13:07.435Z,1.12
2019-03-18T15:16:10.470Z,0.70
2019-03-18T15:19:16.583Z,1.17
2019-03-18T15:22:19.368Z,0.88
2019-03-18T15:25:18.727Z,0.82
2019-03-18T15:28:21.867Z,0.80
2019-03-18T15:31:26.184Z,0.80
2019-03-18T15:34:29.226Z,0.65
2019-03-18T15:37:32.270Z,0.70
2019-03-18T15:40:36.070Z,0.82
2019-03-18T15:43:39.880Z,0.93
2019-03-18T15:46:42.922Z,0.90
2019-03-18T15:49:48.263Z,0.68
2019-03-18T15:52:51.305Z,0.98
2019-03-18T15:55:54.344Z,0.80
2019-03-18T15:58:57.385Z,0.98
2019-03-18T16:02:00.167Z,1.82
2019-03-18T16:05:02.955Z,1.10
2019-03-18T16:08:06.248Z,2.20
2019-03-18T16:11:09.289Z,1.20
2019-03-18T16:14:12.072Z,1.55
2019-03-18T16:17:15.112Z,1.67
2019-03-18T16:20:18.664Z,1.32
2019-03-18T16:23:21.703Z,3.10
2019-03-18T16:26:24.233Z,3.47
2019-03-18T16:29:27.279Z,2.08
2019-03-18T16:32:30.313Z,1.55
2019-03-18T16:35:33.352Z,1.75
2019-03-18T16:38:36.136Z,1.75
2019-03-18T16:41:40.200Z,1.20
2019-03-18T16:44:43.497Z,1.15
2019-03-18T16:47:46.535Z,0.93
2019-03-18T16:50:49.320Z,1.10
2019-03-18T16:53:52.358Z,1.30
2019-03-18T16:56:55.400Z,1.12
2019-03-18T16:59:58.186Z,0.80
2019-03-18T17:03:01.231Z,1.00
2019-03-18T17:06:05.287Z,0.68
2019-03-18T17:09:08.330Z,0.90
2019-03-18T17:12:11.624Z,0.80
2019-03-18T17:15:13.127Z,1.00
2019-03-18T17:18:18.038Z,0.88
2019-03-18T17:21:18.956Z,1.37
2019-03-18T17:24:21.736Z,1.00
2019-03-18T17:27:24.521Z,0.98
2019-03-18T17:30:27.563Z,1.10
2019-03-18T17:33:30.348Z,1.37
2019-03-18T17:36:33.643Z,1.02
2019-03-18T17:39:36.679Z,0.88
2019-03-18T17:42:39.465Z,1.00
2019-03-18T17:45:42.247Z,1.35
2019-03-18T17:48:45.288Z,1.20
2019-03-18T17:51:48.071Z,1.00
2019-03-18T17:54:46.759Z,0.90
2019-03-18T17:57:50.058Z,1.50
2019-03-18T18:00:55.913Z,1.15
2019-03-18T18:03:58.951Z,1.25
2019-03-18T18:07:02.265Z,1.00
2019-03-18T18:10:05.033Z,1.57
2019-03-18T18:13:07.817Z,1.30
2019-03-18T18:16:11.623Z,1.17
2019-03-18T18:19:14.408Z,1.60
2019-03-18T18:25:32.520Z,2.45
2019-03-18T18:29:31.368Z,1.20
2019-03-18T18:32:36.461Z,2.40
2019-03-18T18:35:39.756Z,2.05
2019-03-18T18:38:43.048Z,2.75
2019-03-18T18:41:45.836Z,3.08
2019-03-18T18:44:48.620Z,2.12
2019-03-18T18:47:54.220Z,1.57
2019-03-18T18:50:56.999Z,2.67
2019-03-18T18:53:59.785Z,2.22
2019-03-18T18:57:02.570Z,1.35
2019-03-18T19:00:05.351Z,1.75
2019-03-18T19:03:08.138Z,1.52
2019-03-18T19:06:10.922Z,2.22
2019-03-18T19:09:10.376Z,2.00
2019-03-18T19:12:13.417Z,2.20
2019-03-18T19:15:16.199Z,2.58
2019-03-18T19:18:19.244Z,2.55
2019-03-18T19:21:22.024Z,2.50
2019-03-18T19:24:32.234Z,2.65
2019-03-18T19:27:35.277Z,2.80
2019-03-18T19:30:38.061Z,2.87
2019-03-18T19:33:41.868Z,3.10
2019-03-18T19:36:44.905Z,3.80
2019-03-18T19:39:47.688Z,3.17
2019-03-18T19:42:50.471Z,3.00
2019-03-18T19:45:53.255Z,2.83
2019-03-18T19:48:56.300Z,3.22
2019-03-18T19:51:59.081Z,2.80
2019-03-18T19:55:04.169Z,2.95
2019-03-18T19:58:06.956Z,3.08
2019-03-18T20:01:09.736Z,3.22
2019-03-18T20:04:12.775Z,3.30
2019-03-18T20:07:15.560Z,3.58
2019-03-18T20:10:18.628Z,3.87
2019-03-18T20:13:21.385Z,3.47
2019-03-18T20:16:24.428Z,3.70
2019-03-18T20:19:27.731Z,3.87
2019-03-18T20:22:31.016Z,4.28
2019-03-18T20:25:34.058Z,4.30
2019-03-18T20:28:37.099Z,4.12
2019-03-18T20:31:40.135Z,4.65
2019-03-18T20:34:43.185Z,4.12
2019-03-18T20:37:46.216Z,4.55
2019-03-18T20:40:49.004Z,5.03
2019-03-18T20:43:52.042Z,5.00
2019-03-18T20:46:57.128Z,5.00
2019-03-18T20:50:00.316Z,5.67
2019-03-18T20:53:04.238Z,3.83
2019-03-18T20:56:07.018Z,5.50
2019-03-18T20:59:09.798Z,5.20
2019-03-18T21:02:12.846Z,5.00
2019-03-18T21:05:15.886Z,5.15
2019-03-18T21:08:18.665Z,4.78
2019-03-18T21:11:21.964Z,4.97
2019-03-18T21:14:25.767Z,5.37
2019-03-18T21:17:28.556Z,5.17
2019-03-18T21:20:31.596Z,5.92
2019-03-18T21:23:35.660Z,4.62
2019-03-18T21:26:39.722Z,7.62
2019-03-18T21:29:42.506Z,6.08
2019-03-18T21:32:45.543Z,6.97
2019-03-18T21:35:48.587Z,5.97
2019-03-18T21:38:51.373Z,5.65
2019-03-18T21:41:54.153Z,4.92
2019-03-18T21:44:57.193Z,5.40
2019-03-18T21:48:00.235Z,5.47
2019-03-18T21:51:03.534Z,4.47
2019-03-18T21:54:06.824Z,5.85
2019-03-18T21:57:09.868Z,4.70
2019-03-18T22:00:07.147Z,5.85
2019-03-18T22:03:10.056Z,4.40
2019-03-18T22:06:13.351Z,5.17
2019-03-18T22:09:12.297Z,5.17
2019-03-18T22:12:15.337Z,3.75
2019-03-18T22:15:18.375Z,4.12
2019-03-18T22:18:21.418Z,5.58
2019-03-18T22:21:24.204Z,5.50
2019-03-18T22:24:26.982Z,3.33
2019-03-18T22:27:29.769Z,5.50
2019-03-18T22:30:32.808Z,5.25
2019-03-18T22:33:35.850Z,5.78
2019-03-18T22:36:39.144Z,6.42
2019-03-18T22:39:41.932Z,3.25
2019-03-18T22:42:44.714Z,3.10
2019-03-18T22:45:48.007Z,3.15
2019-03-18T22:48:51.047Z,5.37
2019-03-18T22:51:54.089Z,5.92
2019-03-18T22:54:59.432Z,5.28
2019-03-18T22:58:02.477Z,6.08
2019-03-18T23:01:18.568Z,5.80
2019-03-18T23:04:21.356Z,5.90
2019-03-18T23:07:24.648Z,3.52
2019-03-18T23:10:28.713Z,6.40
2019-03-18T23:13:31.755Z,6.30
2019-03-18T23:16:34.534Z,5.83
2019-03-18T23:19:37.579Z,5.95
2019-03-18T23:22:40.364Z,6.45
2019-03-18T23:25:43.143Z,5.47
2019-03-18T23:28:47.208Z,5.60
2019-03-18T23:31:50.251Z,6.00
2019-03-18T23:34:53.290Z,4.35
2019-03-18T23:37:56.328Z,3.12
2019-03-18T23:40:59.116Z,3.67
2019-03-18T23:44:02.920Z,6.30
2019-03-18T23:47:06.215Z,5.42
2019-03-18T23:50:09.000Z,5.78
2019-03-18T23:53:12.041Z,5.97
2019-03-18T23:56:15.081Z,7.33
2019-03-18T23:59:18.120Z,6.03
